Time;durP1;ratioP1;P1;durP2;ratioP2;P2;SDS_P1;SDS_P2;PMS_P1;PMS_P2;Temp;Humidity;BMP_temperature;BMP_pressure;BME280_temperature;BME280_humidity;BME280_pressure;Samples;Min_cycle;Max_cycle;Signal;HPM_P1;HPM_P2
2020/12/05 00:02:18;;;;;;;11.30;8.37;;;;;;;7.01;74.98;97829.77;124878;1098;65133;-84
2020/12/05 00:04:45;;;;;;;11.80;8.73;;;;;;;7.03;74.96;97840.27;125253;1098;65559;-85
2020/12/05 00:07:13;;;;;;;10.90;8.47;;;;;;;7.04;74.90;97829.55;125285;1098;65124;-83
2020/12/05 00:09:41;;;;;;;14.03;10.40;;;;;;;7.13;75.27;97846.58;125361;1098;65173;-83
2020/12/05 00:12:10;;;;;;;14.83;10.30;;;;;;;7.15;75.02;97849.97;125185;1098;65352;-83
2020/12/05 00:14:36;;;;;;;15.23;9.77;;;;;;;7.14;74.35;97856.23;124980;1100;65148;-83
2020/12/05 00:17:03;;;;;;;11.77;8.17;;;;;;;7.11;74.72;97843.22;125250;1098;65201;-86
2020/12/05 00:19:30;;;;;;;11.40;8.77;;;;;;;7.11;75.04;97850.30;125307;1098;65250;-86
2020/12/05 00:21:57;;;;;;;13.30;10.63;;;;;;;7.11;74.69;97853.81;124929;1100;65246;-86
2020/12/05 00:24:25;;;;;;;13.80;10.30;;;;;;;7.11;74.69;97853.81;124833;1099;65260;-86
2020/12/05 00:26:54;;;;;;;13.43;10.00;;;;;;;7.12;74.51;97859.95;125345;1098;65192;-86
2020/12/05 00:29:21;;;;;;;14.67;11.87;;;;;;;7.08;74.60;97869.06;125311;1099;65211;-83
2020/12/05 00:31:51;;;;;;;16.65;12.15;;;;;;;7.04;74.56;97876.39;124876;1099;65150;-83
2020/12/05 00:34:19;;;;;;;18.23;12.70;;;;;;;6.99;74.60;97875.86;125317;1099;65150;-83
2020/12/05 00:36:45;;;;;;;17.90;12.37;;;;;;;6.90;74.03;97874.72;124864;1100;65226;-83
2020/12/05 00:39:13;;;;;;;17.30;12.93;;;;;;;6.83;74.75;97889.33;124865;1100;65246;-83
2020/12/05 00:41:39;;;;;;;18.40;12.83;;;;;;;6.76;74.27;97885.41;125226;1098;65634;-86
2020/12/05 00:44:06;;;;;;;19.77;14.20;;;;;;;6.68;74.37;97890.38;124880;1100;65108;-86
2020/12/05 00:46:32;;;;;;;18.80;14.07;;;;;;;6.62;74.15;97888.17;125255;1098;65153;-83
2020/12/05 00:48:59;;;;;;;18.73;13.83;;;;;;;6.56;74.32;97878.85;125209;1098;65220;-87
2020/12/05 00:51:25;;;;;;;20.90;14.00;;;;;;;6.50;74.51;97887.19;124889;1099;65227;-86
2020/12/05 00:53:52;;;;;;;22.62;16.42;;;;;;;6.43;74.42;97892.06;125269;1098;65154;-86
2020/12/05 00:56:21;;;;;;;20.43;14.60;;;;;;;6.37;74.57;97887.17;124827;1098;65220;-86
2020/12/05 00:58:48;;;;;;;22.13;13.20;;;;;;;6.33;74.44;97888.34;124970;1098;65265;-86
2020/12/05 01:01:16;;;;;;;21.00;13.50;;;;;;;6.31;74.72;97880.50;124928;1099;65243;-86
2020/12/05 01:03:42;;;;;;;18.90;14.30;;;;;;;6.31;74.92;97891.08;125290;1098;65239;-86
2020/12/05 01:06:16;;;;;;;20.97;14.47;;;;;;;6.31;74.62;97884.95;124789;1100;65220;-84
2020/12/05 01:08:44;;;;;;;21.17;14.33;;;;;;;6.29;74.73;97894.78;124980;1099;65690;-85
2020/12/05 01:11:20;;;;;;;20.57;15.47;;;;;;;6.27;74.71;97879.03;125224;1098;65265;-86
2020/12/05 01:13:47;;;;;;;19.20;14.40;;;;;;;6.26;74.94;97885.25;125177;1098;65249;-85
2020/12/05 01:16:16;;;;;;;20.07;14.57;;;;;;;6.24;74.74;97875.72;125267;1098;65297;-85
2020/12/05 01:18:43;;;;;;;14.27;11.40;;;;;;;6.24;75.25;97881.02;125235;1098;65214;-85
2020/12/05 01:21:16;;;;;;;16.93;11.27;;;;;;;6.23;75.05;97880.17;125276;1098;65268;-85
2020/12/05 01:23:44;;;;;;;17.03;13.00;;;;;;;6.28;75.33;97877.22;124858;1098;65150;-85
2020/12/05 01:26:10;;;;;;;16.27;12.37;;;;;;;6.33;75.18;97889.19;125223;1098;65217;-85
2020/12/05 01:28:37;;;;;;;17.60;13.43;;;;;;;6.33;75.26;97886.54;124869;1099;65131;-85
2020/12/05 01:31:05;;;;;;;19.53;14.07;;;;;;;6.36;75.14;97873.09;125346;1098;65160;-86
2020/12/05 01:33:32;;;;;;;19.30;13.35;;;;;;;6.37;75.28;97885.40;125270;1098;65150;-85
2020/12/05 01:35:59;;;;;;;18.97;13.90;;;;;;;6.37;75.15;97887.17;124879;1098;65136;-85
2020/12/05 01:38:27;;;;;;;18.03;12.33;;;;;;;6.35;75.02;97879.36;124927;1100;65323;-85
2020/12/05 01:40:58;;;;;;;14.00;10.83;;;;;;;6.35;75.22;97882.00;124940;1100;65171;-86
2020/12/05 01:43:30;;;;;;;19.33;14.00;;;;;;;6.38;75.25;97875.66;124756;1100;65172;-85
2020/12/05 01:46:05;;;;;;;19.17;14.03;;;;;;;6.37;75.08;97873.94;124892;1100;65262;-85
2020/12/05 01:48:32;;;;;;;17.33;14.03;;;;;;;6.37;75.10;97871.30;124958;1100;65310;-86
2020/12/05 01:50:59;;;;;;;17.77;13.53;;;;;;;6.38;75.06;97871.20;125253;1098;65280;-85
2020/12/05 01:53:26;;;;;;;16.80;12.37;;;;;;;6.44;75.09;97874.39;125246;1098;65347;-85
2020/12/05 01:55:52;;;;;;;14.70;10.67;;;;;;;6.48;75.11;97875.89;124900;1100;65223;-86
2020/12/05 01:58:19;;;;;;;17.20;11.40;;;;;;;6.58;75.05;97879.57;124885;1099;65149;-86
2020/12/05 02:00:46;;;;;;;15.73;12.03;;;;;;;6.64;74.95;97870.39;124899;1099;65159;-85
2020/12/05 02:03:17;;;;;;;18.57;13.43;;;;;;;6.64;75.20;97871.23;124930;1098;65156;-85
2020/12/05 02:06:06;;;;;;;16.87;13.30;;;;;;;6.65;74.97;97861.48;125240;1098;65248;-85
2020/12/05 02:08:40;;;;;;;18.40;13.10;;;;;;;6.65;74.83;97861.48;125276;1098;65162;-83
2020/12/05 02:11:12;;;;;;;17.33;11.97;;;;;;;6.64;74.91;97860.64;124873;1099;65210;-83
2020/12/05 02:13:46;;;;;;;17.47;12.63;;;;;;;6.64;74.77;97863.28;125333;1098;65153;-83
2020/12/05 02:16:15;;;;;;;17.00;11.53;;;;;;;6.62;74.74;97872.28;124893;1100;65220;-85
2020/12/05 02:18:45;;;;;;;17.00;12.63;;;;;;;6.58;74.92;97868.98;124915;1098;65220;-84
2020/12/05 02:21:15;;;;;;;17.10;14.20;;;;;;;6.55;74.89;97875.33;125239;1098;65217;-85
2020/12/05 02:23:43;;;;;;;;;;;;;;;6.53;74.85;97886.98;125354;1099;65238;-85
2020/12/05 02:26:10;;;;;;;19.33;14.03;;;;;;;6.48;74.82;97879.38;125276;1098;65236;-85
2020/12/05 02:28:36;;;;;;;19.70;16.80;;;;;;;6.43;74.95;97880.64;125248;1098;65281;-85
2020/12/05 02:31:03;;;;;;;22.83;20.27;;;;;;;6.37;75.06;97882.75;124913;1098;65252;-85
2020/12/05 02:33:29;;;;;;;33.13;25.40;;;;;;;6.34;75.32;97880.28;125234;1098;65198;-85
2020/12/05 02:35:56;;;;;;;20.47;17.27;;;;;;;6.36;75.28;97877.55;125257;1099;65123;-85
2020/12/05 02:38:49;;;;;;;14.43;11.87;;;;;;;6.38;75.25;97883.59;125311;1098;65545;-85
2020/12/05 02:41:16;;;;;;;22.70;17.63;;;;;;;6.43;75.45;97883.29;125297;1098;65226;-85
2020/12/05 02:43:42;;;;;;;23.97;17.90;;;;;;;6.52;75.62;97887.94;125342;1098;65182;-85
2020/12/05 02:46:09;;;;;;;31.33;22.60;;;;;;;6.59;75.63;97897.17;125306;1098;65130;-84
2020/12/05 02:48:35;;;;;;;23.57;18.57;;;;;;;6.66;75.64;97892.28;125253;1098;65120;-85
2020/12/05 02:51:02;;;;;;;24.60;21.53;;;;;;;6.73;75.45;97894.41;125275;1098;65093;-85
2020/12/05 02:53:28;;;;;;;21.50;19.07;;;;;;;6.79;75.50;97898.42;124881;1100;65294;-85
2020/12/05 02:55:54;;;;;;;15.60;13.80;;;;;;;6.86;75.55;97904.16;125277;1099;65580;-85
2020/12/05 02:58:21;;;;;;;11.47;10.27;;;;;;;6.96;75.28;97899.92;125281;1098;65156;-85
2020/12/05 03:00:47;;;;;;;11.63;8.47;;;;;;;7.06;75.27;97903.63;125399;1099;65228;-85
2020/12/05 03:03:13;;;;;;;10.07;7.77;;;;;;;7.16;75.42;97906.45;125294;1099;65138;-85
2020/12/05 03:05:40;;;;;;;10.40;8.43;;;;;;;7.27;74.98;97893.31;124854;1099;65259;-85
2020/12/05 03:08:07;;;;;;;11.77;10.27;;;;;;;7.36;75.17;97886.50;124877;1100;65485;-85
2020/12/05 03:10:33;;;;;;;11.40;9.50;;;;;;;7.40;74.53;97880.04;124875;1100;65299;-84
2020/12/05 03:13:00;;;;;;;11.77;8.70;;;;;;;7.47;74.76;97887.41;125240;1098;65147;-85
2020/12/05 03:15:26;;;;;;;11.33;8.80;;;;;;;7.55;74.36;97880.72;125216;1098;65300;-85
2020/12/05 03:17:52;;;;;;;11.00;8.90;;;;;;;7.59;74.29;97887.50;125272;1098;65140;-85
2020/12/05 03:20:19;;;;;;;10.43;8.03;;;;;;;7.59;74.42;97883.05;125255;1098;65238;-85
2020/12/05 03:22:45;;;;;;;9.97;7.97;;;;;;;7.62;73.96;97872.20;125318;1099;65146;-85
2020/12/05 03:25:12;;;;;;;11.63;10.40;;;;;;;7.64;74.13;97880.91;125240;1099;65345;-85
2020/12/05 03:27:38;;;;;;;11.93;10.57;;;;;;;7.66;73.92;97881.64;124834;1100;65076;-85
2020/12/05 03:30:05;;;;;;;12.23;10.07;;;;;;;7.66;74.00;97878.12;124851;1100;65232;-85
2020/12/05 03:32:31;;;;;;;14.63;10.73;;;;;;;7.66;74.03;97875.47;124925;1099;65162;-85
2020/12/05 03:34:58;;;;;;;13.13;9.17;;;;;;;7.67;74.01;97866.58;125349;1098;65205;-85
2020/12/05 03:37:25;;;;;;;13.53;9.90;;;;;;;7.71;73.85;97873.33;125302;1098;65137;-85
2020/12/05 03:39:52;;;;;;;11.50;8.63;;;;;;;7.73;73.77;97882.02;125188;1098;65141;-84
2020/12/05 03:42:18;;;;;;;11.55;7.40;;;;;;;7.77;74.04;97864.11;125260;1098;65221;-85
2020/12/05 03:44:45;;;;;;;10.77;8.13;;;;;;;7.79;73.59;97862.16;124988;1098;65204;-85
2020/12/05 03:47:11;;;;;;;12.83;8.53;;;;;;;7.80;73.19;97862.06;124959;1100;65150;-85
2020/12/05 03:49:38;;;;;;;12.67;8.93;;;;;;;7.82;73.57;97861.92;125269;1099;65134;-84
2020/12/05 03:52:05;;;;;;;11.43;9.23;;;;;;;7.80;73.58;97875.32;125192;1098;65123;-84
2020/12/05 03:54:32;;;;;;;10.83;9.50;;;;;;;7.80;73.48;97877.13;124895;1100;65593;-85
2020/12/05 03:56:58;;;;;;;11.53;9.67;;;;;;;7.77;73.61;97888.81;124909;1100;65261;-85
2020/12/05 03:59:25;;;;;;;13.70;10.87;;;;;;;7.72;73.32;97893.61;125343;1098;65131;-85
2020/12/05 04:01:52;;;;;;;15.10;12.37;;;;;;;7.66;73.75;97881.64;125335;1098;65153;-85
2020/12/05 04:04:18;;;;;;;11.10;9.83;;;;;;;7.61;73.50;97888.22;124867;1099;65162;-85
2020/12/05 04:06:45;;;;;;;10.30;8.40;;;;;;;7.58;73.63;97883.14;125323;1098;65233;-85
2020/12/05 04:09:12;;;;;;;10.00;8.23;;;;;;;7.56;73.67;97895.69;124905;1100;65246;-85
2020/12/05 04:11:40;;;;;;;11.95;10.40;;;;;;;7.55;74.01;97904.58;124924;1099;65200;-85
2020/12/05 04:14:09;;;;;;;19.60;15.67;;;;;;;7.54;73.82;97905.55;124987;1098;65152;-85
2020/12/05 04:16:37;;;;;;;25.90;20.83;;;;;;;7.53;73.47;97901.18;125367;1098;65070;-85
2020/12/05 04:19:05;;;;;;;19.90;17.75;;;;;;;7.54;73.78;97903.73;125288;1098;65153;-86
2020/12/05 04:21:32;;;;;;;29.67;26.67;;;;;;;7.53;73.72;97915.31;125061;1098;65189;-85
2020/12/05 04:23:58;;;;;;;20.30;16.00;;;;;;;7.50;73.53;97907.55;124909;1098;65124;-85
2020/12/05 04:26:25;;;;;;;17.20;12.87;;;;;;;7.47;73.88;97911.27;125208;1099;65198;-85
2020/12/05 04:28:51;;;;;;;19.40;16.17;;;;;;;7.43;73.56;97912.46;125276;1099;65276;-85
2020/12/05 04:31:18;;;;;;;29.07;22.37;;;;;;;7.44;73.66;97910.65;125211;1100;65236;-85
2020/12/05 04:33:45;;;;;;;20.85;16.85;;;;;;;7.47;73.66;97919.22;125275;1098;65268;-85
2020/12/05 04:36:12;;;;;;;24.37;20.30;;;;;;;7.50;73.84;97922.62;125208;1098;65130;-85
2020/12/05 04:38:38;;;;;;;11.57;9.60;;;;;;;7.51;73.93;97925.17;125216;1099;65182;-85
2020/12/05 04:41:05;;;;;;;14.67;12.00;;;;;;;7.57;73.25;97929.18;125276;1098;65147;-85
2020/12/05 04:43:35;;;;;;;15.10;10.90;;;;;;;7.63;73.25;97926.08;125242;1098;65280;-85
2020/12/05 04:46:03;;;;;;;13.87;11.33;;;;;;;7.65;73.13;97929.47;125278;1098;65153;-86
2020/12/05 04:48:33;;;;;;;14.63;10.80;;;;;;;7.63;73.10;97920.77;124907;1100;65208;-85
2020/12/05 04:51:01;;;;;;;;;;;;;;;7.59;72.81;97929.92;125403;1099;65156;-85
2020/12/05 04:53:29;;;;;;;13.30;10.40;;;;;;;7.52;73.18;97926.85;125319;1098;65127;-85
2020/12/05 04:55:59;;;;;;;14.50;10.80;;;;;;;7.50;73.00;97925.27;124852;1099;65297;-85
2020/12/05 04:58:25;;;;;;;15.55;11.48;;;;;;;7.46;72.76;97928.14;124911;1100;65224;-85
2020/12/05 05:00:54;;;;;;;14.13;11.60;;;;;;;7.46;73.23;97924.65;125297;1098;65312;-85
2020/12/05 05:03:23;;;;;;;14.87;12.40;;;;;;;7.45;72.90;97922.94;124943;1098;65730;-85
2020/12/05 05:05:55;;;;;;;15.00;12.50;;;;;;;7.42;73.17;97918.70;125227;1098;65179;-85
2020/12/05 05:08:27;;;;;;;14.60;12.40;;;;;;;7.43;72.93;97922.22;125255;1098;65246;-86
2020/12/05 05:11:12;;;;;;;13.25;10.95;;;;;;;7.43;72.98;97920.41;125342;1098;65175;-85
2020/12/05 05:13:57;;;;;;;12.07;9.83;;;;;;;7.43;72.85;97917.77;125290;1098;65185;-85
2020/12/05 05:16:27;;;;;;;13.27;11.37;;;;;;;7.40;73.14;97925.09;125262;1098;65482;-85
2020/12/05 05:18:53;;;;;;;14.37;10.87;;;;;;;7.39;73.30;97918.92;125370;1099;65175;-85
2020/12/05 05:21:40;;;;;;;15.00;12.00;;;;;;;7.38;73.40;97919.89;125300;1098;65169;-86
2020/12/05 05:24:17;;;;;;;15.20;12.37;;;;;;;7.37;73.43;97914.69;125344;1098;65252;-86
2020/12/05 05:26:57;;;;;;;15.37;11.27;;;;;;;7.36;73.63;97910.36;125262;1099;65080;-84
2020/12/05 05:29:25;;;;;;;;;;;;;;;7.40;73.38;97917.14;125219;1098;65150;-87
2020/12/05 05:31:58;;;;;;;8.63;7.73;;;;;;;7.44;73.58;97921.25;125356;1098;65229;-84
2020/12/05 05:34:25;;;;;;;11.33;9.07;;;;;;;7.49;73.67;97916.47;124893;1098;65185;-84
2020/12/05 05:36:52;;;;;;;11.40;9.67;;;;;;;7.61;73.60;97914.73;125244;1098;65261;-84
2020/12/05 05:39:19;;;;;;;11.07;8.93;;;;;;;7.73;73.39;97923.62;124886;1099;65214;-84
2020/12/05 05:41:53;;;;;;;12.63;10.53;;;;;;;7.77;73.15;97931.25;124894;1099;65282;-84
2020/12/05 05:44:25;;;;;;;16.93;11.60;;;;;;;7.72;73.26;97930.73;125301;1099;65141;-84
2020/12/05 05:46:51;;;;;;;14.37;12.20;;;;;;;7.65;73.05;97938.27;124851;1100;65226;-86
2020/12/05 05:49:32;;;;;;;14.07;11.03;;;;;;;7.56;73.01;97930.16;125262;1098;65201;-84
2020/12/05 05:52:03;;;;;;;13.10;10.47;;;;;;;7.48;73.06;97930.70;125280;1098;65127;-84
2020/12/05 05:54:31;;;;;;;10.60;8.33;;;;;;;7.47;73.26;97928.98;124972;1099;65143;-84
2020/12/05 05:57:05;;;;;;;10.37;9.27;;;;;;;7.47;73.47;97913.08;125298;1098;65150;-84
2020/12/05 05:59:40;;;;;;;13.57;11.10;;;;;;;7.48;73.31;97920.94;125240;1098;65280;-84
2020/12/05 06:02:09;;;;;;;14.43;11.13;;;;;;;7.51;73.23;97926.98;125321;1098;65209;-84
2020/12/05 06:04:45;;;;;;;15.30;13.43;;;;;;;7.49;73.28;97942.98;124876;1098;65102;-84
2020/12/05 06:07:18;;;;;;;16.60;14.00;;;;;;;7.47;73.08;97940.42;125274;1098;65208;-84
2020/12/05 06:09:49;;;;;;;13.43;11.73;;;;;;;7.47;73.30;97942.23;125256;1098;65201;-84
2020/12/05 06:12:27;;;;;;;16.50;14.33;;;;;;;7.50;73.45;97959.73;125342;1099;65255;-84
2020/12/05 06:14:55;;;;;;;13.03;11.17;;;;;;;7.56;73.33;97957.50;125031;1098;65201;-85
2020/12/05 06:17:26;;;;;;;32.73;29.90;;;;;;;7.64;73.32;97964.91;125323;1098;65147;-84
2020/12/05 06:19:55;;;;;;;49.00;40.00;;;;;;;7.68;73.02;97974.33;124938;1099;65115;-84
2020/12/05 06:22:35;;;;;;;64.10;47.73;;;;;;;7.71;73.10;97958.19;124908;1098;65573;-84
2020/12/05 06:25:09;;;;;;;23.93;18.17;;;;;;;7.72;72.99;97969.67;125217;1098;65159;-84
2020/12/05 06:27:40;;;;;;;14.80;12.47;;;;;;;7.72;73.01;97957.25;125307;1099;65130;-84
2020/12/05 06:30:08;;;;;;;14.53;12.23;;;;;;;7.75;73.17;97964.14;125247;1098;65147;-84
2020/12/05 06:32:40;;;;;;;14.23;11.33;;;;;;;7.75;72.88;97969.45;124867;1099;65229;-84
2020/12/05 06:35:19;;;;;;;17.07;12.03;;;;;;;7.73;72.98;97981.96;124893;1099;65111;-85
2020/12/05 06:37:47;;;;;;;16.77;11.33;;;;;;;7.72;72.98;97986.42;125159;1099;65173;-84
2020/12/05 06:40:14;;;;;;;12.53;9.73;;;;;;;7.73;73.21;97980.16;125285;1098;65217;-84
2020/12/05 06:42:43;;;;;;;14.57;11.00;;;;;;;7.79;72.98;97981.51;124904;1098;65125;-84
2020/12/05 06:45:28;;;;;;;14.30;11.55;;;;;;;7.81;72.90;97979.60;125343;1098;65211;-84
2020/12/05 06:48:07;;;;;;;15.97;11.63;;;;;;;7.80;73.32;97970.80;125318;1098;65139;-84
2020/12/05 06:50:44;;;;;;;22.03;19.40;;;;;;;7.81;73.37;97974.30;125310;1098;65140;-84
2020/12/05 06:53:20;;;;;;;17.90;14.83;;;;;;;7.82;72.80;97960.06;124965;1100;65194;-84
2020/12/05 06:55:48;;;;;;;14.37;11.53;;;;;;;7.89;73.15;97958.67;125307;1098;65591;-84
2020/12/05 06:58:14;;;;;;;10.20;8.47;;;;;;;7.92;73.16;97974.36;125357;1100;65149;-83
2020/12/05 07:00:41;;;;;;;12.00;9.23;;;;;;;7.94;73.59;97963.66;125301;1098;65169;-84
2020/12/05 07:03:09;;;;;;;12.40;9.20;;;;;;;7.99;73.32;97975.63;124913;1100;65274;-83
2020/12/05 07:05:46;;;;;;;11.73;9.93;;;;;;;8.06;73.30;97982.19;125235;1098;65217;-84
2020/12/05 07:08:37;;;;;;;10.20;8.43;;;;;;;8.17;73.37;97976.09;124917;1100;65166;-83
2020/12/05 07:11:07;;;;;;;9.47;8.50;;;;;;;8.28;73.12;97983.25;125278;1098;65143;-83
2020/12/05 07:13:43;;;;;;;;;;;;;;;8.31;73.36;97985.68;125325;1098;65176;-83
2020/12/05 07:16:11;;;;;;;10.30;9.20;;;;;;;8.39;73.29;97987.77;125367;1098;65230;-85
2020/12/05 07:18:40;;;;;;;11.80;9.87;;;;;;;8.44;73.07;97993.62;125287;1098;65300;-85
2020/12/05 07:21:07;;;;;;;11.83;9.10;;;;;;;8.49;73.03;97991.47;125342;1098;65584;-85
2020/12/05 07:23:34;;;;;;;10.15;7.25;;;;;;;8.56;72.65;97998.03;124846;1099;65300;-85
2020/12/05 07:26:02;;;;;;;11.23;9.10;;;;;;;8.68;72.82;97999.74;125353;1098;65623;-86
2020/12/05 07:28:29;;;;;;;14.75;12.55;;;;;;;8.80;72.80;98008.61;125312;1098;65377;-85
2020/12/05 07:30:55;;;;;;;15.63;13.93;;;;;;;8.89;72.75;98005.24;125260;1099;65143;-86
2020/12/05 07:33:22;;;;;;;16.67;13.77;;;;;;;8.94;72.25;98012.88;125264;1098;65158;-85
2020/12/05 07:36:05;;;;;;;22.30;18.20;;;;;;;8.99;72.22;98014.22;124906;1098;65223;-85
2020/12/05 07:38:34;;;;;;;19.67;15.73;;;;;;;9.04;72.02;98013.03;124875;1098;65176;-84
2020/12/05 07:41:09;;;;;;;32.07;25.50;;;;;;;9.09;72.08;98017.03;125288;1098;65134;-84
2020/12/05 07:43:36;;;;;;;23.70;17.50;;;;;;;9.11;71.53;98020.42;124947;1098;65140;-84
2020/12/05 07:46:05;;;;;;;26.67;19.77;;;;;;;9.12;71.69;98022.10;125278;1099;65166;-84
2020/12/05 07:48:32;;;;;;;18.10;14.80;;;;;;;9.15;71.50;98019.20;125247;1099;65172;-85
2020/12/05 07:50:59;;;;;;;15.80;10.93;;;;;;;9.19;71.78;98025.16;125289;1098;65263;-85
2020/12/05 07:53:29;;;;;;;12.47;10.07;;;;;;;9.21;71.55;98032.02;125326;1098;65115;-85
2020/12/05 07:55:56;;;;;;;10.65;8.63;;;;;;;9.25;71.58;98037.96;124898;1100;65157;-85
2020/12/05 07:58:24;;;;;;;12.70;10.77;;;;;;;9.33;71.42;98035.56;125315;1098;65143;-85
2020/12/05 08:00:54;;;;;;;11.97;10.13;;;;;;;9.42;70.88;98036.64;125290;1098;65597;-85
2020/12/05 08:03:50;;;;;;;12.57;10.10;;;;;;;9.50;70.95;98036.89;125293;1098;65217;-85
2020/12/05 08:06:29;;;;;;;12.30;11.00;;;;;;;9.59;70.27;98056.63;125235;1098;65197;-85
2020/12/05 08:09:03;;;;;;;14.30;11.37;;;;;;;9.64;70.31;98055.30;125266;1098;65147;-85
2020/12/05 08:11:40;;;;;;;11.17;10.00;;;;;;;9.65;70.45;98058.80;125303;1099;65249;-85
2020/12/05 08:14:10;;;;;;;11.53;9.57;;;;;;;9.68;69.91;98055.90;125322;1098;65341;-85
2020/12/05 08:16:38;;;;;;;;;;;;;;;9.72;69.84;98065.34;124895;1100;65166;-86
2020/12/05 08:19:05;;;;;;;12.13;9.57;;;;;;;9.78;68.68;98061.35;125288;1099;65124;-86
2020/12/05 08:21:34;;;;;;;10.70;9.60;;;;;;;9.82;68.82;98068.98;125309;1098;65191;-84
2020/12/05 08:24:08;;;;;;;11.17;10.07;;;;;;;9.88;69.22;98070.31;125329;1098;65117;-86
2020/12/05 08:26:37;;;;;;;11.27;9.27;;;;;;;9.92;69.24;98073.56;125012;1098;65223;-85
2020/12/05 08:29:07;;;;;;;22.57;16.10;;;;;;;9.94;69.21;98074.30;125296;1098;65120;-86
2020/12/05 08:31:44;;;;;;;27.55;24.63;;;;;;;9.96;68.92;98083.85;125232;1098;65163;-85
2020/12/05 08:34:11;;;;;;;38.03;29.93;;;;;;;10.00;69.28;98077.30;124909;1098;65227;-86
2020/12/05 08:36:43;;;;;;;24.17;18.90;;;;;;;10.05;68.35;98067.14;124854;1100;65156;-85
2020/12/05 08:39:12;;;;;;;31.53;24.27;;;;;;;10.09;68.97;98078.41;124964;1100;65143;-86
2020/12/05 08:41:57;;;;;;;20.97;17.30;;;;;;;10.14;67.67;98062.04;125290;1098;65140;-85
2020/12/05 08:44:30;;;;;;;28.43;21.57;;;;;;;10.22;67.99;98067.63;125203;1098;65210;-85
2020/12/05 08:47:07;;;;;;;23.70;18.57;;;;;;;10.24;68.22;98077.19;124867;1099;65168;-85
2020/12/05 08:49:42;;;;;;;21.70;17.40;;;;;;;10.27;68.15;98078.76;125369;1098;65159;-85
2020/12/05 08:52:10;;;;;;;31.10;23.95;;;;;;;10.30;67.92;98079.38;125218;1098;65153;-85
2020/12/05 08:54:47;;;;;;;25.70;20.83;;;;;;;10.31;68.68;98080.22;124830;1100;65169;-85
2020/12/05 08:57:15;;;;;;;18.50;14.97;;;;;;;10.37;68.16;98082.38;124905;1098;65281;-85
2020/12/05 08:59:42;;;;;;;15.33;10.30;;;;;;;10.42;68.41;98092.67;125292;1098;65179;-85
2020/12/05 09:02:11;;;;;;;10.20;8.25;;;;;;;10.43;67.82;98092.55;124917;1098;65173;-84
2020/12/05 09:04:38;;;;;;;27.17;20.07;;;;;;;10.35;67.13;98095.00;125267;1098;65271;-84
2020/12/05 09:07:17;;;;;;;28.17;21.77;;;;;;;10.13;67.00;98111.78;124942;1098;65182;-84
2020/12/05 09:09:45;;;;;;;;;;;;;;;9.94;67.65;98108.89;125398;1098;65153;-84
2020/12/05 09:12:17;;;;;;;29.77;22.50;;;;;;;9.83;67.60;98117.72;125350;1098;65117;-84
2020/12/05 09:14:48;;;;;;;24.70;19.77;;;;;;;9.73;67.98;98111.42;125271;1100;65217;-87
2020/12/05 09:17:22;;;;;;;28.00;22.60;;;;;;;9.64;68.10;98105.00;125228;1098;65115;-86
2020/12/05 09:19:49;;;;;;;29.03;19.70;;;;;;;9.61;68.00;98090.13;125243;1098;65147;-86
2020/12/05 09:22:33;;;;;;;20.20;15.87;;;;;;;9.60;68.26;98080.44;125258;1098;65166;-85
2020/12/05 09:25:00;;;;;;;19.97;14.87;;;;;;;9.64;68.29;98075.75;125328;1098;65236;-86
2020/12/05 09:27:42;;;;;;;16.20;12.63;;;;;;;9.67;68.71;98080.82;125198;1098;65229;-85
2020/12/05 09:30:11;;;;;;;11.73;9.00;;;;;;;9.80;68.68;98070.06;124853;1100;65214;-85
2020/12/05 09:32:45;;;;;;;13.43;11.83;;;;;;;9.94;68.12;98076.95;125285;1099;65333;-85
2020/12/05 09:35:14;;;;;;;17.00;12.20;;;;;;;10.04;67.94;98083.25;124879;1098;65325;-86
2020/12/05 09:37:42;;;;;;;15.27;12.63;;;;;;;10.11;68.24;98077.31;125255;1098;65300;-86
2020/12/05 09:40:11;;;;;;;20.80;14.63;;;;;;;10.14;68.21;98072.69;125252;1098;65172;-84
2020/12/05 09:42:38;;;;;;;19.73;15.73;;;;;;;10.11;67.83;98071.99;125240;1098;65503;-84
2020/12/05 09:45:07;;;;;;;19.40;17.10;;;;;;;10.12;68.33;98067.51;124845;1100;65195;-85
2020/12/05 09:47:33;;;;;;;17.07;12.50;;;;;;;10.16;68.29;98070.77;125213;1098;65374;-84
2020/12/05 09:50:00;;;;;;;10.85;8.70;;;;;;;10.24;67.96;98070.98;125383;1098;65144;-85
2020/12/05 09:52:27;;;;;;;8.50;6.63;;;;;;;10.31;68.09;98074.89;125211;1099;65120;-85
2020/12/05 09:54:53;;;;;;;7.23;6.30;;;;;;;10.42;68.50;98076.69;125325;1098;65138;-85
2020/12/05 09:57:20;;;;;;;9.63;6.83;;;;;;;10.53;68.47;98066.87;125278;1098;65155;-84
2020/12/05 09:59:46;;;;;;;8.60;7.50;;;;;;;10.63;67.73;98066.94;124866;1099;65310;-85
2020/12/05 10:02:13;;;;;;;10.00;7.90;;;;;;;10.73;67.83;98059.05;124878;1098;65628;-85
2020/12/05 10:04:39;;;;;;;8.67;7.53;;;;;;;10.86;67.64;98069.54;125285;1098;65242;-85
2020/12/05 10:07:06;;;;;;;9.40;7.90;;;;;;;10.95;67.58;98074.96;125231;1098;65169;-85
2020/12/05 10:09:34;;;;;;;9.63;7.53;;;;;;;11.04;67.58;98070.67;124873;1100;65203;-85
2020/12/05 10:12:01;;;;;;;8.80;6.70;;;;;;;11.14;67.07;98073.42;125234;1098;65232;-85
2020/12/05 10:14:27;;;;;;;9.37;8.13;;;;;;;11.21;67.46;98078.08;125335;1098;65140;-85
2020/12/05 10:16:53;;;;;;;13.90;12.37;;;;;;;11.26;66.47;98079.53;124887;1099;65233;-84
2020/12/05 10:19:20;;;;;;;18.47;14.70;;;;;;;11.21;66.43;98079.91;125339;1099;65147;-85
2020/12/05 10:21:48;;;;;;;23.50;18.50;;;;;;;11.10;66.22;98080.81;125274;1098;65321;-85
2020/12/05 10:24:16;;;;;;;28.73;22.53;;;;;;;10.99;66.40;98072.87;124897;1098;65325;-85
2020/12/05 10:26:47;;;;;;;28.57;22.60;;;;;;;10.91;66.40;98073.52;125336;1098;65703;-84
2020/12/05 10:29:14;;;;;;;23.85;18.50;;;;;;;10.80;65.75;98078.05;125298;1098;65126;-85
2020/12/05 10:31:49;;;;;;;24.50;18.30;;;;;;;10.73;66.48;98083.03;125235;1098;65185;-83
2020/12/05 10:34:16;;;;;;;17.73;14.80;;;;;;;10.67;66.50;98086.20;125170;1098;65239;-84
2020/12/05 10:36:43;;;;;;;17.80;14.30;;;;;;;10.64;66.65;98092.63;124874;1099;65326;-83
2020/12/05 10:39:11;;;;;;;22.03;16.47;;;;;;;10.63;67.03;98085.59;124864;1100;65223;-82
2020/12/05 10:41:38;;;;;;;23.20;16.27;;;;;;;10.61;66.52;98092.89;125262;1098;65118;-83
2020/12/05 10:44:05;;;;;;;23.77;17.27;;;;;;;10.57;66.37;98094.09;124863;1100;65143;-83
2020/12/05 10:46:32;;;;;;;23.20;20.23;;;;;;;10.52;66.55;98094.46;125336;1098;65219;-83
2020/12/05 10:48:59;;;;;;;27.67;22.13;;;;;;;10.49;66.82;98096.54;124881;1098;65250;-83
2020/12/05 10:51:25;;;;;;;26.47;22.20;;;;;;;10.42;67.09;98098.00;125304;1098;65217;-83
2020/12/05 10:53:52;;;;;;;26.00;20.70;;;;;;;10.33;66.41;98102.26;125199;1098;65245;-83
2020/12/05 10:56:18;;;;;;;27.87;20.63;;;;;;;10.23;66.81;98104.77;124882;1100;65141;-83
2020/12/05 10:58:44;;;;;;;26.43;20.40;;;;;;;10.14;66.85;98116.16;125251;1098;65133;-83
2020/12/05 11:01:12;;;;;;;25.40;20.43;;;;;;;10.09;66.42;98127.17;124853;1098;65370;-83
2020/12/05 11:03:38;;;;;;;22.50;18.37;;;;;;;10.09;66.79;98134.31;125290;1098;65648;-83
2020/12/05 11:06:05;;;;;;;24.03;19.80;;;;;;;10.08;67.05;98125.48;125368;1098;65115;-81
2020/12/05 11:08:32;;;;;;;27.00;20.60;;;;;;;10.07;66.62;98126.44;125769;1098;65316;-88
2020/12/05 11:10:58;;;;;;;28.50;21.80;;;;;;;10.07;67.32;98121.11;125040;1100;65178;-91
2020/12/05 11:13:24;;;;;;;27.15;18.25;;;;;;;10.09;67.17;98119.18;125412;1098;65706;-93
2020/12/05 11:15:51;;;;;;;25.10;18.97;;;;;;;10.10;67.25;98118.20;125001;1098;65195;-82
2020/12/05 11:18:17;;;;;;;25.57;19.30;;;;;;;10.12;66.88;98128.74;125396;1099;65168;-88
2020/12/05 11:20:44;;;;;;;25.33;18.73;;;;;;;10.10;67.19;98120.86;125419;1098;65179;-86
2020/12/05 11:23:10;;;;;;;25.30;18.30;;;;;;;10.09;66.84;98119.18;125378;1098;65118;-87
2020/12/05 11:25:38;;;;;;;24.00;18.13;;;;;;;10.10;67.02;98128.84;125413;1098;65143;-88
2020/12/05 11:28:04;;;;;;;20.77;15.93;;;;;;;10.13;66.98;98117.11;125327;1098;65242;-89
2020/12/05 11:30:30;;;;;;;15.97;12.23;;;;;;;10.20;66.96;98115.66;125409;1098;65147;-83